Home   Weather   Germany   Wernigerode   Past weeks
Flag for Germany

Past Weather in Wernigerode, Saxony-Anhalt, Germany — Yesterday and Last 2 Weeks

Currently: 82 °F. Scattered clouds. (Weather station: Braunschweig Wolfsburg, Germany). See more current weather

Past Weather in Wernigerode — Graph

°F

Wernigerode Temperature Yesterday

Maximum temperature yesterday: 77 °F (at 6:50 pm)
Minimum temperature yesterday: 55 °F (at 5:50 am)
Average temperature yesterday: 66 °F

High & Low Weather Summary for the Past Weeks

 TemperatureHumidityPressure
High82 °F (Jun 3, 4:50 pm)100% (Jun 5, 9:50 pm)30.33 "Hg (Jun 5, 9:50 pm)
Low46 °F (Jun 14, 4:20 am)28% (Jun 1, 11:20 pm)29.98 "Hg (Jun 12, 11:20 am)
Average66 °F70%30.12 "Hg
* Reported Jun 1 4:20 pm — Jun 16 4:20 pm, Wernigerode. Weather by CustomWeather, © 2021

Note: Actual official high and low records may vary slightly from our data, if they occured in-between our weather recording intervals... More about our weather records

Wernigerode Weather History for the Previous 24 Hours

Scroll right to see more
 ConditionsComfort  
Time TempWeatherWind HumidityBarometerVisibility
4:20 pm
Wed, Jun 16
81 °FScattered clouds.9 mph54%29.98 "HgN/A
3:50 pm81 °FPartly sunny.10 mph54%29.98 "HgN/A
3:20 pm82 °FScattered clouds.9 mph51%29.98 "HgN/A
2:50 pm79 °FScattered clouds.10 mph58%30.01 "HgN/A
2:20 pm77 °FBroken clouds.9 mph61%30.01 "HgN/A
1:50 pm79 °FScattered clouds.10 mph58%30.01 "HgN/A
1:20 pm79 °FScattered clouds.10 mph54%30.01 "HgN/A
12:50 pm77 °FPassing clouds.10 mph57%30.04 "HgN/A
12:20 pm75 °FPassing clouds.8 mph61%30.04 "HgN/A
11:50 am77 °FPassing clouds.8 mph54%30.04 "HgN/A
11:20 am75 °FPassing clouds.7 mph57%30.04 "HgN/A
10:50 am73 °FPassing clouds.6 mph57%30.04 "HgN/A
10:20 am72 °FPassing clouds.3 mph61%30.07 "HgN/A
9:50 am70 °FSunny.3 mph57%30.07 "Hg10 mi
9:20 am68 °FPassing clouds.3 mph64%30.07 "HgN/A
8:50 am64 °FPassing clouds.5 mph68%30.07 "HgN/A
8:20 am63 °FPassing clouds.3 mph68%30.07 "HgN/A
7:50 am61 °FSunny.5 mph72%30.07 "Hg10 mi
7:20 am59 °FSunny.5 mph72%30.07 "Hg10 mi
6:50 am55 °FSunny.3 mph82%30.07 "Hg10 mi
6:20 am54 °FSunny.6 mph88%30.07 "HgN/A
5:50 am50 °FSunny.5 mph94%30.09 "HgN/A
5:20 am48 °FSunny.No wind94%30.09 "HgN/A
4:50 am50 °FClear.No wind94%30.09 "HgN/A
4:20 am50 °FClear.2 mph94%30.09 "HgN/A
3:50 am52 °FClear.3 mph88%30.09 "HgN/A
3:20 am54 °FClear.3 mph82%30.09 "HgN/A
2:50 am55 °FClear.5 mph82%30.09 "HgN/A
2:20 am57 °FClear.5 mph77%30.09 "HgN/A
1:50 am57 °FClear.3 mph77%30.09 "HgN/A
1:20 am59 °FClear.2 mph72%30.09 "HgN/A
12:50 am59 °FClear.2 mph72%30.09 "HgN/A
12:20 am59 °FClear.3 mph72%30.09 "HgN/A
11:50 pm
Tue, Jun 15
59 °FClear.3 mph72%30.09 "HgN/A
11:20 pm63 °FClear.1 mph64%30.09 "HgN/A
10:50 pm63 °FClear.2 mph64%30.09 "HgN/A
10:20 pm64 °FClear.No wind64%30.09 "HgN/A
9:50 pm66 °FClear.2 mph60%30.09 "HgN/A
8:50 pm72 °FSunny.1 mph47%30.09 "Hg10 mi
8:20 pm72 °FSunny.2 mph47%30.09 "HgN/A
7:50 pm75 °FPassing clouds.3 mph34%30.09 "HgN/A
7:20 pm75 °FPassing clouds.3 mph34%30.09 "HgN/A
6:50 pm77 °FSunny.3 mph32%30.09 "Hg10 mi
6:20 pm75 °FPassing clouds.6 mph34%30.09 "HgN/A
5:50 pm75 °FPassing clouds.5 mph34%30.09 "HgN/A
5:20 pm75 °FPassing clouds.6 mph31%30.09 "HgN/A
Weather by CustomWeather, © 2021

See weather overview